createdAt,value
2023-04-07T00:02:17.625Z,73.32
2023-04-07T00:04:44.616Z,73.65
2023-04-07T00:07:11.454Z,74.30
2023-04-07T00:09:38.234Z,74.00
2023-04-07T00:12:05.213Z,74.22
2023-04-07T00:14:32.122Z,74.50
2023-04-07T00:16:58.893Z,74.73
2023-04-07T00:19:25.687Z,74.83
2023-04-07T00:21:52.475Z,75.26
2023-04-07T00:24:27.414Z,75.42
2023-04-07T00:27:01.428Z,75.43
2023-04-07T00:29:28.235Z,75.53
2023-04-07T00:31:55.035Z,75.64
2023-04-07T00:34:21.823Z,75.48
2023-04-07T00:36:52.600Z,75.37
2023-04-07T00:39:20.088Z,75.65
2023-04-07T00:41:47.235Z,75.42
2023-04-07T00:44:14.242Z,77.40
2023-04-07T00:46:41.725Z,76.69
2023-04-07T00:49:11.079Z,76.98
2023-04-07T00:51:38.300Z,76.96
2023-04-07T00:54:05.219Z,76.94
2023-04-07T00:56:32.523Z,76.79
2023-04-07T00:58:59.326Z,77.16
2023-04-07T01:01:27.957Z,77.09
2023-04-07T01:03:58.210Z,77.69
2023-04-07T01:06:31.811Z,77.56
2023-04-07T01:09:05.495Z,77.53
2023-04-07T01:11:32.453Z,77.21
2023-04-07T01:14:01.008Z,77.39
2023-04-07T01:16:29.919Z,77.75
2023-04-07T01:18:58.526Z,77.55
2023-04-07T01:21:29.084Z,77.32
2023-04-07T01:24:05.074Z,77.48
2023-04-07T01:26:33.754Z,77.68
2023-04-07T01:29:11.580Z,77.65
2023-04-07T01:31:40.745Z,77.55
2023-04-07T01:34:11.061Z,77.60
2023-04-07T01:36:38.051Z,77.91
2023-04-07T01:39:05.942Z,77.84
2023-04-07T01:41:33.752Z,78.02
2023-04-07T01:44:01.503Z,78.78
2023-04-07T01:46:29.038Z,78.55
2023-04-07T01:48:56.387Z,79.19
2023-04-07T01:51:24.247Z,78.66
2023-04-07T01:53:51.091Z,78.83
2023-04-07T01:56:17.888Z,78.94
2023-04-07T01:58:44.807Z,78.87
2023-04-07T02:01:12.257Z,79.00
2023-04-07T02:03:42.232Z,78.82
2023-04-07T02:06:10.661Z,79.06
2023-04-07T02:08:39.447Z,79.09
2023-04-07T02:11:08.290Z,78.82
2023-04-07T02:13:37.823Z,79.01
2023-04-07T02:16:05.799Z,78.82
2023-04-07T02:18:33.290Z,79.00
2023-04-07T02:21:01.610Z,78.80
2023-04-07T02:23:28.731Z,78.99
2023-04-07T02:25:58.304Z,78.55
2023-04-07T02:28:25.121Z,78.66
2023-04-07T02:30:51.990Z,79.26
2023-04-07T02:33:18.791Z,79.09
2023-04-07T02:35:45.699Z,79.17
2023-04-07T02:38:12.471Z,78.99
2023-04-07T02:40:39.290Z,79.18
2023-04-07T02:43:06.166Z,78.39
2023-04-07T02:45:32.971Z,78.36
2023-04-07T02:47:59.979Z,78.53
2023-04-07T02:50:26.938Z,79.06
2023-04-07T02:52:53.865Z,79.20
2023-04-07T02:55:20.685Z,79.26
2023-04-07T02:57:47.455Z,79.58
2023-04-07T03:00:15.158Z,79.25
2023-04-07T03:02:42.083Z,79.01
2023-04-07T03:05:09.471Z,79.23
2023-04-07T03:07:36.253Z,79.70
2023-04-07T03:10:03.124Z,79.57
2023-04-07T03:12:29.960Z,78.97
2023-04-07T03:14:57.078Z,78.94
2023-04-07T03:17:23.926Z,79.40
2023-04-07T03:19:52.084Z,79.65
2023-04-07T03:22:18.931Z,79.81
2023-04-07T03:24:45.887Z,79.97
2023-04-07T03:27:12.665Z,80.55
2023-04-07T03:29:39.510Z,80.53
2023-04-07T03:32:06.437Z,80.87
2023-04-07T03:34:33.311Z,80.34
2023-04-07T03:37:00.184Z,80.35
2023-04-07T03:39:27.060Z,80.38
2023-04-07T03:41:53.961Z,80.34
2023-04-07T03:44:20.784Z,80.68
2023-04-07T03:46:48.479Z,80.69
2023-04-07T03:49:15.822Z,80.16
2023-04-07T03:51:42.764Z,79.94
2023-04-07T03:54:09.585Z,79.77
2023-04-07T03:56:37.577Z,79.34
2023-04-07T03:59:04.413Z,79.95
2023-04-07T04:01:32.087Z,79.87
2023-04-07T04:03:59.330Z,79.96
2023-04-07T04:06:27.586Z,80.21
2023-04-07T04:08:54.345Z,80.20
2023-04-07T04:11:22.381Z,80.46
2023-04-07T04:13:49.224Z,79.74
2023-04-07T04:16:16.400Z,79.98
2023-04-07T04:18:43.235Z,81.03
2023-04-07T04:21:10.156Z,80.38
2023-04-07T04:23:36.967Z,80.42
2023-04-07T04:26:04.200Z,80.77
2023-04-07T04:28:31.593Z,81.09
2023-04-07T04:30:58.425Z,80.46
2023-04-07T04:33:25.266Z,80.36
2023-04-07T04:35:52.114Z,80.85
2023-04-07T04:38:19.211Z,81.03
2023-04-07T04:40:46.104Z,80.52
2023-04-07T04:43:12.986Z,81.15
2023-04-07T04:45:39.809Z,80.73
2023-04-07T04:48:07.203Z,80.63
2023-04-07T04:50:34.041Z,80.88
2023-04-07T04:53:00.880Z,81.44
2023-04-07T04:55:27.682Z,81.02
2023-04-07T04:57:54.637Z,80.99
2023-04-07T05:00:21.873Z,81.32
2023-04-07T05:02:48.902Z,80.74
2023-04-07T05:05:16.263Z,80.57
2023-04-07T05:07:43.253Z,81.42
2023-04-07T05:10:10.267Z,80.67
2023-04-07T05:12:37.288Z,80.70
2023-04-07T05:15:04.391Z,80.82
2023-04-07T05:17:31.288Z,80.91
2023-04-07T05:20:00.381Z,80.87
2023-04-07T05:22:27.244Z,80.97
2023-04-07T05:24:54.122Z,81.37
2023-04-07T05:27:20.939Z,81.56
2023-04-07T05:29:47.952Z,81.22
2023-04-07T05:32:17.666Z,82.08
2023-04-07T05:34:44.601Z,81.86
2023-04-07T05:37:11.542Z,82.19
2023-04-07T05:39:38.470Z,81.55
2023-04-07T05:42:05.384Z,81.35
2023-04-07T05:44:32.239Z,81.54
2023-04-07T05:46:59.067Z,81.11
2023-04-07T05:49:25.951Z,80.70
2023-04-07T05:51:52.767Z,80.69
2023-04-07T05:54:19.752Z,80.62
2023-04-07T05:56:46.648Z,80.40
2023-04-07T05:59:13.507Z,80.61
2023-04-07T06:01:40.508Z,80.10
2023-04-07T06:04:07.387Z,79.88
2023-04-07T06:06:34.204Z,80.29
2023-04-07T06:09:01.066Z,79.94
2023-04-07T06:11:28.304Z,79.90
2023-04-07T06:13:55.180Z,78.93
2023-04-07T06:16:22.055Z,78.65
2023-04-07T06:18:48.983Z,78.74
2023-04-07T06:21:16.133Z,79.15
2023-04-07T06:23:43.048Z,79.08
2023-04-07T06:26:11.542Z,79.42
2023-04-07T06:28:39.271Z,78.94
2023-04-07T06:31:06.713Z,77.76
2023-04-07T06:33:33.613Z,77.64
2023-04-07T06:36:00.610Z,78.43
2023-04-07T06:38:27.488Z,78.51
2023-04-07T06:40:54.341Z,78.65
2023-04-07T06:43:21.310Z,78.67
2023-04-07T06:45:48.192Z,78.89
2023-04-07T06:48:15.190Z,77.65
2023-04-07T06:50:42.043Z,77.80
2023-04-07T06:53:08.950Z,78.65
2023-04-07T06:55:36.151Z,77.96
2023-04-07T06:58:02.986Z,76.63
2023-04-07T07:00:31.295Z,75.81
2023-04-07T07:02:58.256Z,71.54
2023-04-07T07:05:25.848Z,71.47
2023-04-07T07:07:52.729Z,70.13
2023-04-07T07:10:23.016Z,69.76
2023-04-07T07:12:50.714Z,68.72
2023-04-07T07:15:18.374Z,68.13
2023-04-07T07:17:45.293Z,68.09
2023-04-07T07:20:12.384Z,67.72
2023-04-07T07:22:39.255Z,67.62
2023-04-07T07:25:06.530Z,67.53
2023-04-07T07:27:33.386Z,65.00
2023-04-07T07:30:00.425Z,64.50
2023-04-07T07:32:27.491Z,64.72
2023-04-07T07:34:54.745Z,64.43
2023-04-07T07:37:21.817Z,63.80
2023-04-07T07:39:48.632Z,63.62
2023-04-07T07:42:15.659Z,63.50
2023-04-07T07:44:42.632Z,62.12
2023-04-07T07:47:09.713Z,61.44
2023-04-07T07:49:36.702Z,62.05
2023-04-07T07:52:03.884Z,59.11
2023-04-07T07:54:31.042Z,57.67
2023-04-07T07:56:58.176Z,54.72
2023-04-07T07:59:25.008Z,52.86
2023-04-07T08:01:52.482Z,51.02
2023-04-07T08:04:19.572Z,49.72
2023-04-07T08:06:46.880Z,49.59
2023-04-07T08:09:13.774Z,47.75
2023-04-07T08:11:40.723Z,48.82
2023-04-07T08:14:09.821Z,49.48
2023-04-07T08:16:36.960Z,49.13
2023-04-07T08:19:04.024Z,50.37
2023-04-07T08:21:32.044Z,52.11
2023-04-07T08:23:59.029Z,53.43
2023-04-07T08:26:26.096Z,55.17
2023-04-07T08:28:53.405Z,56.15
2023-04-07T08:31:20.501Z,57.82
2023-04-07T08:33:47.824Z,57.82
2023-04-07T08:36:15.265Z,59.77
2023-04-07T08:38:43.227Z,60.66
2023-04-07T08:41:12.321Z,60.92
2023-04-07T08:43:39.580Z,61.33
2023-04-07T08:46:07.838Z,62.03
2023-04-07T08:48:36.795Z,62.02
2023-04-07T08:51:06.489Z,62.39
2023-04-07T08:53:37.218Z,62.81
2023-04-07T08:56:04.566Z,62.26
2023-04-07T08:58:31.552Z,62.04
2023-04-07T09:00:58.737Z,62.39
2023-04-07T09:03:26.927Z,62.14
2023-04-07T09:05:57.180Z,61.22
2023-04-07T09:08:24.145Z,61.43
2023-04-07T09:10:52.382Z,61.40
2023-04-07T09:13:19.607Z,61.94
2023-04-07T09:15:53.081Z,62.26
2023-04-07T09:18:20.140Z,62.02
2023-04-07T09:20:50.732Z,62.90
2023-04-07T09:23:20.705Z,62.91
2023-04-07T09:25:47.837Z,62.36
2023-04-07T09:28:15.175Z,62.14
2023-04-07T09:30:52.815Z,61.62
2023-04-07T09:33:26.976Z,61.62
2023-04-07T09:35:54.141Z,62.19
2023-04-07T09:38:21.094Z,62.19
2023-04-07T09:40:49.439Z,62.54
2023-04-07T09:43:19.189Z,62.72
2023-04-07T09:45:46.505Z,61.70
2023-04-07T09:48:16.903Z,61.17
2023-04-07T09:50:46.424Z,60.33
2023-04-07T09:53:13.441Z,60.20
2023-04-07T09:55:42.024Z,61.32
2023-04-07T09:58:12.452Z,59.98
2023-04-07T10:00:39.517Z,60.51
2023-04-07T10:03:07.995Z,59.67
2023-04-07T10:05:35.732Z,59.64
2023-04-07T10:08:03.068Z,58.73
2023-04-07T10:10:31.260Z,58.69
2023-04-07T10:12:59.319Z,60.00
2023-04-07T10:15:27.605Z,59.31
2023-04-07T10:17:57.141Z,58.01
2023-04-07T10:20:24.647Z,57.20
2023-04-07T10:22:52.652Z,57.32
2023-04-07T10:25:21.612Z,58.26
2023-04-07T10:27:52.022Z,58.43
2023-04-07T10:30:22.716Z,59.33
2023-04-07T10:32:50.899Z,56.48
2023-04-07T10:35:18.035Z,56.05
2023-04-07T10:37:49.364Z,56.40
2023-04-07T10:40:19.624Z,55.84
2023-04-07T10:42:48.068Z,55.47
2023-04-07T10:45:15.325Z,56.70
2023-04-07T10:47:45.409Z,56.64
2023-04-07T10:50:13.600Z,56.36
2023-04-07T10:52:40.976Z,56.96
2023-04-07T10:55:10.982Z,57.85
2023-04-07T10:57:37.991Z,56.58
2023-04-07T11:00:09.501Z,55.53
2023-04-07T11:02:39.034Z,54.88
2023-04-07T11:05:06.617Z,54.45
2023-04-07T11:07:36.692Z,54.54
2023-04-07T11:10:09.873Z,54.65
2023-04-07T11:12:37.056Z,53.82
2023-04-07T11:15:07.504Z,54.23
2023-04-07T11:17:34.759Z,53.32
2023-04-07T11:20:01.870Z,54.26
2023-04-07T11:22:30.567Z,53.67
2023-04-07T11:24:57.885Z,54.27
2023-04-07T11:27:25.025Z,53.28
2023-04-07T11:29:52.023Z,52.66
2023-04-07T11:32:26.077Z,50.84
2023-04-07T11:34:53.261Z,49.22
2023-04-07T11:37:21.677Z,50.07
2023-04-07T11:39:51.721Z,51.12
2023-04-07T11:42:31.704Z,52.14
2023-04-07T11:44:58.932Z,51.44
2023-04-07T11:47:29.560Z,49.11
2023-04-07T11:49:56.653Z,47.71
2023-04-07T11:52:23.698Z,48.83
2023-04-07T11:54:50.909Z,48.56
2023-04-07T11:57:21.063Z,49.13
2023-04-07T11:59:48.270Z,50.49
2023-04-07T12:02:31.355Z,50.19
2023-04-07T12:04:58.640Z,49.56
2023-04-07T12:07:27.378Z,49.73
2023-04-07T12:09:55.404Z,49.00
2023-04-07T12:12:25.423Z,48.93
2023-04-07T12:14:52.896Z,47.21
2023-04-07T12:17:21.879Z,45.12
2023-04-07T12:19:48.878Z,44.71
2023-04-07T12:22:15.878Z,44.94
2023-04-07T12:24:42.893Z,46.13
2023-04-07T12:27:10.438Z,45.96
2023-04-07T12:29:37.831Z,47.43
2023-04-07T12:32:05.677Z,46.81
2023-04-07T12:34:33.611Z,45.85
2023-04-07T12:37:00.767Z,44.43
2023-04-07T12:39:28.376Z,44.78
2023-04-07T12:41:55.494Z,46.37
2023-04-07T12:44:22.381Z,47.15
2023-04-07T12:46:49.302Z,48.28
2023-04-07T12:49:16.939Z,48.53
2023-04-07T12:51:43.973Z,48.17
2023-04-07T12:54:11.121Z,48.08
2023-04-07T12:56:38.069Z,48.10
2023-04-07T12:59:05.277Z,46.16
2023-04-07T13:01:34.578Z,45.74
2023-04-07T13:04:02.429Z,46.21
2023-04-07T13:06:29.436Z,45.63
2023-04-07T13:08:56.805Z,45.94
2023-04-07T13:11:23.742Z,45.11
2023-04-07T13:13:50.973Z,44.37
2023-04-07T13:16:18.160Z,43.86
2023-04-07T13:18:45.149Z,44.05
2023-04-07T13:21:42.577Z,43.61
2023-04-07T13:23:59.309Z,43.92
2023-04-07T13:26:26.948Z,42.74
2023-04-07T13:28:54.093Z,43.13
2023-04-07T13:31:22.305Z,44.43
2023-04-07T13:33:49.569Z,44.28
2023-04-07T13:36:16.791Z,43.63
2023-04-07T13:38:43.718Z,42.58
2023-04-07T13:41:10.590Z,42.09
2023-04-07T13:43:37.696Z,40.42
2023-04-07T13:46:07.797Z,39.50
2023-04-07T13:48:42.699Z,40.30
2023-04-07T13:51:10.713Z,40.59
2023-04-07T13:53:37.625Z,41.26
2023-04-07T13:56:06.281Z,40.83
2023-04-07T13:58:33.893Z,41.25
2023-04-07T14:01:00.872Z,39.87
2023-04-07T14:03:28.567Z,39.30
2023-04-07T14:06:00.883Z,39.97
2023-04-07T14:08:28.274Z,39.78
2023-04-07T14:10:55.508Z,40.42
2023-04-07T14:13:22.480Z,41.04
2023-04-07T14:15:50.523Z,42.18
2023-04-07T14:18:17.862Z,42.47
2023-04-07T14:20:45.034Z,42.65
2023-04-07T14:23:15.080Z,42.52
2023-04-07T14:25:43.686Z,42.19
2023-04-07T14:28:10.683Z,42.09
2023-04-07T14:30:39.084Z,41.99
2023-04-07T14:33:06.344Z,41.43
2023-04-07T14:35:33.490Z,41.87
2023-04-07T14:38:01.024Z,42.09
2023-04-07T14:40:28.297Z,42.14
2023-04-07T14:45:25.907Z,42.10
2023-04-07T14:47:53.094Z,42.42
2023-04-07T14:50:20.494Z,42.91
2023-04-07T14:52:47.942Z,40.67
2023-04-07T14:55:16.310Z,40.10
2023-04-07T14:57:43.441Z,39.41
2023-04-07T15:00:11.025Z,39.79
2023-04-07T15:02:38.164Z,39.61
2023-04-07T15:05:05.481Z,39.96
2023-04-07T15:07:32.842Z,39.18
2023-04-07T15:10:00.421Z,39.24
2023-04-07T15:12:30.101Z,38.91
2023-04-07T15:14:57.270Z,38.13
2023-04-07T15:17:36.346Z,38.37
2023-04-07T15:20:08.051Z,38.77
2023-04-07T15:22:35.911Z,38.22
2023-04-07T15:25:03.867Z,37.97
2023-04-07T15:27:30.811Z,37.26
2023-04-07T15:29:57.726Z,37.55
2023-04-07T15:32:24.825Z,38.04
2023-04-07T15:34:51.740Z,37.87
2023-04-07T15:37:19.670Z,38.60
2023-04-07T15:39:46.627Z,38.55
2023-04-07T15:42:13.518Z,38.15
2023-04-07T15:44:40.519Z,38.52
2023-04-07T15:47:09.219Z,38.30
2023-04-07T15:49:37.830Z,38.75
2023-04-07T15:52:05.867Z,37.05
2023-04-07T15:54:32.918Z,36.50
2023-04-07T15:56:59.957Z,36.04
2023-04-07T15:59:29.648Z,35.29
2023-04-07T16:01:56.739Z,35.52
2023-04-07T16:04:23.919Z,35.73
2023-04-07T16:06:51.091Z,36.17
2023-04-07T16:09:18.072Z,36.52
2023-04-07T16:11:45.261Z,37.16
2023-04-07T16:14:12.478Z,37.66
2023-04-07T16:16:41.768Z,37.57
2023-04-07T16:19:09.239Z,36.20
2023-04-07T16:21:36.277Z,36.12
2023-04-07T16:24:03.173Z,36.56
2023-04-07T16:26:30.167Z,37.66
2023-04-07T16:28:59.659Z,37.93
2023-04-07T16:31:26.832Z,38.56
2023-04-07T16:33:53.882Z,38.20
2023-04-07T16:36:21.349Z,38.83
2023-04-07T16:38:50.014Z,38.63
2023-04-07T16:41:17.311Z,38.38
2023-04-07T16:43:44.327Z,38.55
2023-04-07T16:46:11.357Z,38.03
2023-04-07T16:48:39.352Z,37.68
2023-04-07T16:51:06.904Z,37.15
2023-04-07T16:53:33.799Z,37.68
2023-04-07T16:56:00.783Z,37.82
2023-04-07T16:58:27.840Z,37.67
2023-04-07T17:00:55.132Z,38.99
2023-04-07T17:03:22.511Z,39.22
2023-04-07T17:05:49.802Z,40.83
2023-04-07T17:08:17.414Z,40.84
2023-04-07T17:10:44.281Z,41.50
2023-04-07T17:13:11.485Z,40.85
2023-04-07T17:15:38.766Z,41.14
2023-04-07T17:18:05.823Z,41.52
2023-04-07T17:20:33.163Z,41.50
2023-04-07T17:23:00.099Z,41.76
2023-04-07T17:25:27.033Z,40.93
2023-04-07T17:27:55.454Z,40.91
2023-04-07T17:30:22.857Z,40.46
2023-04-07T17:32:50.989Z,40.68
2023-04-07T17:35:18.110Z,41.07
2023-04-07T17:37:45.080Z,40.50
2023-04-07T17:40:12.387Z,41.00
2023-04-07T17:42:39.624Z,41.95
2023-04-07T17:45:07.444Z,40.67
2023-04-07T17:47:34.934Z,41.16
2023-04-07T17:50:02.509Z,40.26
2023-04-07T17:52:30.728Z,40.05
2023-04-07T17:54:57.712Z,39.93
2023-04-07T17:57:24.782Z,40.33
2023-04-07T17:59:51.731Z,41.03
2023-04-07T18:02:18.792Z,41.73
2023-04-07T18:04:46.131Z,41.11
2023-04-07T18:07:13.757Z,42.18
2023-04-07T18:09:43.155Z,41.76
2023-04-07T18:12:10.173Z,42.47
2023-04-07T18:14:37.255Z,41.44
2023-04-07T18:17:04.654Z,42.19
2023-04-07T18:19:33.283Z,42.59
2023-04-07T18:22:01.227Z,43.24
2023-04-07T18:24:28.195Z,42.95
2023-04-07T18:26:55.612Z,43.24
2023-04-07T18:29:22.851Z,43.20
2023-04-07T18:31:49.867Z,43.14
2023-04-07T18:34:16.937Z,42.16
2023-04-07T18:36:44.345Z,41.97
2023-04-07T18:39:11.508Z,42.39
2023-04-07T18:41:38.498Z,42.75
2023-04-07T18:44:05.406Z,43.08
2023-04-07T18:46:32.404Z,43.12
2023-04-07T18:48:59.278Z,43.51
2023-04-07T18:51:26.623Z,43.33
2023-04-07T18:53:53.477Z,43.49
2023-04-07T18:56:22.520Z,43.72
2023-04-07T18:58:49.519Z,43.83
2023-04-07T19:01:16.933Z,44.39
2023-04-07T19:03:44.241Z,45.52
2023-04-07T19:06:13.764Z,45.06
2023-04-07T19:08:42.837Z,45.20
2023-04-07T19:11:10.357Z,45.23
2023-04-07T19:13:37.327Z,45.68
2023-04-07T19:16:04.330Z,46.12
2023-04-07T19:18:34.618Z,45.39
2023-04-07T19:21:01.803Z,45.46
2023-04-07T19:23:30.723Z,45.85
2023-04-07T19:25:57.703Z,45.93
2023-04-07T19:28:24.712Z,45.89
2023-04-07T19:30:51.597Z,46.57
2023-04-07T19:33:18.539Z,47.55
2023-04-07T19:35:45.673Z,47.63
2023-04-07T19:38:12.732Z,47.78
2023-04-07T19:40:39.584Z,47.82
2023-04-07T19:43:07.603Z,48.38
2023-04-07T19:45:34.572Z,49.27
2023-04-07T19:48:01.654Z,48.52
2023-04-07T19:50:28.895Z,48.60
2023-04-07T19:52:55.789Z,48.39
2023-04-07T19:55:22.748Z,47.62
2023-04-07T19:57:49.757Z,47.72
2023-04-07T20:00:17.003Z,48.89
2023-04-07T20:02:44.132Z,49.79
2023-04-07T20:05:11.234Z,49.33
2023-04-07T20:07:38.193Z,48.12
2023-04-07T20:10:05.321Z,47.67
2023-04-07T20:12:32.209Z,48.13
2023-04-07T20:14:59.288Z,49.01
2023-04-07T20:17:26.466Z,48.27
2023-04-07T20:19:54.022Z,48.70
2023-04-07T20:22:21.186Z,48.55
2023-04-07T20:24:48.102Z,49.32
2023-04-07T20:27:15.097Z,49.24
2023-04-07T20:29:42.217Z,49.52
2023-04-07T20:32:09.062Z,49.97
2023-04-07T20:34:36.281Z,49.88
2023-04-07T20:37:03.212Z,48.92
2023-04-07T20:39:30.167Z,49.36
2023-04-07T20:41:57.514Z,49.95
2023-04-07T20:44:24.468Z,50.44
2023-04-07T20:46:51.709Z,50.98
2023-04-07T20:49:19.008Z,51.01
2023-04-07T20:51:46.098Z,52.15
2023-04-07T20:54:13.124Z,52.72
2023-04-07T20:56:40.293Z,53.89
2023-04-07T20:59:07.484Z,55.83
2023-04-07T21:01:34.474Z,55.57
2023-04-07T21:04:03.050Z,55.91
2023-04-07T21:06:29.944Z,56.94
2023-04-07T21:08:57.094Z,57.12
2023-04-07T21:11:24.000Z,57.71
2023-04-07T21:13:50.999Z,58.00
2023-04-07T21:16:20.146Z,58.34
2023-04-07T21:18:47.293Z,58.33
2023-04-07T21:21:14.342Z,59.64
2023-04-07T21:23:41.436Z,60.22
2023-04-07T21:26:08.655Z,60.04
2023-04-07T21:28:35.666Z,60.23
2023-04-07T21:31:02.677Z,60.59
2023-04-07T21:33:29.613Z,60.92
2023-04-07T21:35:56.763Z,61.10
2023-04-07T21:38:23.883Z,61.77
2023-04-07T21:40:51.170Z,61.65
2023-04-07T21:43:18.058Z,61.58
2023-04-07T21:45:47.246Z,61.51
2023-04-07T21:48:16.400Z,61.60
2023-04-07T21:50:43.399Z,62.34
2023-04-07T21:53:10.650Z,62.77
2023-04-07T21:55:37.533Z,62.46
2023-04-07T21:58:04.431Z,62.49
2023-04-07T22:00:31.676Z,62.22
2023-04-07T22:02:59.188Z,62.60
2023-04-07T22:05:26.245Z,63.14
2023-04-07T22:07:53.211Z,63.51
2023-04-07T22:10:20.199Z,63.98
2023-04-07T22:12:47.051Z,63.89
2023-04-07T22:15:14.051Z,63.32
2023-04-07T22:17:41.114Z,64.26
2023-04-07T22:20:09.877Z,64.23
2023-04-07T22:22:36.850Z,64.53
2023-04-07T22:25:03.870Z,66.39
2023-04-07T22:27:31.308Z,67.89
2023-04-07T22:29:58.360Z,68.81
2023-04-07T22:32:27.188Z,69.73
2023-04-07T22:34:54.251Z,71.10
2023-04-07T22:37:21.130Z,71.49
2023-04-07T22:39:48.159Z,72.19
2023-04-07T22:42:15.139Z,72.33
2023-04-07T22:44:42.004Z,72.29
2023-04-07T22:47:09.425Z,73.04
2023-04-07T22:49:36.368Z,74.19
2023-04-07T22:52:03.422Z,74.83
2023-04-07T22:54:30.938Z,75.43
2023-04-07T22:56:58.258Z,74.74
2023-04-07T22:59:25.107Z,75.11
2023-04-07T23:01:52.193Z,75.43
2023-04-07T23:04:19.302Z,76.87
2023-04-07T23:06:48.519Z,76.96
2023-04-07T23:09:15.828Z,77.98
2023-04-07T23:11:43.029Z,76.99
2023-04-07T23:14:09.919Z,76.72
2023-04-07T23:16:36.963Z,76.46
2023-04-07T23:19:07.188Z,77.28
2023-04-07T23:21:34.077Z,78.28
2023-04-07T23:24:00.995Z,78.25
2023-04-07T23:26:28.012Z,76.94
2023-04-07T23:28:55.056Z,76.16
2023-04-07T23:31:22.415Z,76.93
2023-04-07T23:33:49.399Z,77.19
2023-04-07T23:36:18.895Z,77.58
2023-04-07T23:38:46.153Z,77.92
2023-04-07T23:41:13.412Z,77.50
2023-04-07T23:43:40.556Z,77.21
2023-04-07T23:46:07.612Z,77.40
2023-04-07T23:48:36.089Z,78.08
2023-04-07T23:51:02.958Z,78.43
2023-04-07T23:53:29.892Z,79.23
2023-04-07T23:55:56.766Z,78.89
2023-04-07T23:58:23.757Z,78.71
